Latest Flight | Flight Log | Data Trends | Login | Join FlightData.com!
Date Range From To
Export:
Flight Log - N872WT - Click on row to view flight. Click on header to sort.
Date Origin Dest Depart Arrive Hobbs Flight Time Flight Distance Fuel Fuel/hr Fuel/nm Altitude Gnd Speed
Fri, Apr 5, 2019 KVNY KVNY 12:23 13:24 0.97 hrs 0.54 hrs 55.56 nm 8.76 gal 9.08 gal/hr 0.16 gal/nm 2034 msl 99 kts
Fri, Apr 5, 2019     12:12 12:12 0.01 hrs 0.00 hrs 0.00 nm 0.02 gal 2.77 gal/hr 0.00 gal/nm 0 msl 0 kts
Fri, Apr 5, 2019     12:08 12:09 0.01 hrs 0.00 hrs 0.00 nm 22.61 gal 3255.84 gal/hr 0.00 gal/nm 0 msl 0 kts
Fri, Apr 5, 2019 KVNY KVNY 09:10 11:24 2.12 hrs 1.43 hrs 164.40 nm 22.36 gal 10.54 gal/hr 0.14 gal/nm 5068 msl 108 kts
Fri, Apr 5, 2019     08:47 08:48 0.01 hrs 0.00 hrs 0.00 nm 16.70 gal 2404.80 gal/hr 0.00 gal/nm 0 msl 0 kts
Thu, Apr 4, 2019 KVNY KVNY 16:04 17:54 1.75 hrs 1.27 hrs 146.08 nm 17.87 gal 10.22 gal/hr 0.12 gal/nm 5184 msl 110 kts
Thu, Apr 4, 2019     15:48 15:49 0.01 hrs 0.00 hrs 0.00 nm 0.49 gal 33.28 gal/hr 0.00 gal/nm 0 msl 0 kts
Thu, Apr 4, 2019 KVNY KVNY 13:18 13:19 0.01 hrs 0.00 hrs 0.00 nm 26.22 gal 1780.98 gal/hr 0.00 gal/nm 0 msl 0 kts
Wed, Apr 3, 2019 KSBA KVNY 20:19 21:06 0.73 hrs 0.55 hrs 72.61 nm 7.57 gal 10.41 gal/hr 0.10 gal/nm 7600 msl 124 kts
Wed, Apr 3, 2019 KVNY KSBA 17:10 17:57 0.74 hrs 0.52 hrs 71.77 nm 7.74 gal 10.52 gal/hr 0.11 gal/nm 6684 msl 128 kts
Wed, Apr 3, 2019 KVNY KVNY 14:09 15:45 1.49 hrs 1.05 hrs 149.33 nm 16.54 gal 11.07 gal/hr 0.11 gal/nm 6022 msl 133 kts
Wed, Apr 3, 2019     13:58 13:59 0.02 hrs 0.00 hrs 0.00 nm 0.44 gal 19.80 gal/hr 0.00 gal/nm 0 msl 0 kts
Wed, Apr 3, 2019     13:57 13:57 0.01 hrs 0.00 hrs 0.00 nm 19.93 gal 2759.54 gal/hr 0.00 gal/nm 0 msl 0 kts
Wed, Apr 3, 2019 KVNY KVNY 09:41 11:49 1.06 hrs 0.75 hrs 84.47 nm 10.76 gal 10.14 gal/hr 0.13 gal/nm 3247 msl 106 kts
Wed, Apr 3, 2019 KVNY KVNY 09:26 09:27 0.02 hrs 0.00 hrs 0.00 nm 29.55 gal 1587.76 gal/hr 0.00 gal/nm 0 msl 0 kts
Tue, Apr 2, 2019 F70 KVNY 11:35 12:53 1.21 hrs 0.86 hrs 110.35 nm 10.98 gal 9.04 gal/hr 0.10 gal/nm 6011 msl 120 kts
Tue, Apr 2, 2019 F70 F70 11:02 11:04 0.04 hrs 0.00 hrs 0.00 nm 21.64 gal 577.07 gal/hr 0.00 gal/nm 0 msl 0 kts
Mon, Apr 1, 2019 F70 F70 14:25 14:30 0.09 hrs 0.00 hrs 0.00 nm 0.29 gal 3.11 gal/hr 0.00 gal/nm 0 msl 0 kts
Mon, Apr 1, 2019 KVNY F70 13:00 14:06 1.03 hrs 0.69 hrs 93.53 nm 9.63 gal 9.35 gal/hr 0.10 gal/nm 5521 msl 125 kts
Mon, Apr 1, 2019 KVNY KVNY 08:47 09:47 0.04 hrs 0.00 hrs 0.00 nm 27.25 gal 726.67 gal/hr 0.00 gal/nm 0 msl 0 kts
Sun, Mar 31, 2019 KVNY KVNY 15:35 16:44 1.1 hrs 0.68 hrs 75.52 nm 10.32 gal 9.36 gal/hr 0.14 gal/nm 4032 msl 105 kts
Sun, Mar 31, 2019     15:13 15:14 0.01 hrs 0.00 hrs 0.00 nm 26.59 gal 2454.46 gal/hr 0.00 gal/nm 0 msl 0 kts
Sun, Mar 31, 2019 KVNY KVNY 12:31 13:30 0.94 hrs 0.65 hrs 84.50 nm 9.74 gal 10.36 gal/hr 0.12 gal/nm 3597 msl 126 kts
Sun, Mar 31, 2019     12:16 12:16 0.01 hrs 0.00 hrs 0.00 nm 0.26 gal 36.00 gal/hr 0.00 gal/nm 0 msl 0 kts
Sun, Mar 31, 2019 KVNY KVNY 10:49 11:53 1.02 hrs 0.74 hrs 93.11 nm 11.87 gal 11.65 gal/hr 0.13 gal/nm 3868 msl 118 kts
Sun, Mar 31, 2019     10:41 10:42 0.01 hrs 0.00 hrs 0.00 nm 0.17 gal 24.48 gal/hr 0.00 gal/nm 0 msl 0 kts
Sun, Mar 31, 2019 KVNY KVNY 08:43 09:49 1.04 hrs 0.71 hrs 90.71 nm 11.75 gal 11.30 gal/hr 0.13 gal/nm 5508 msl 122 kts
Sun, Mar 31, 2019 KVNY KVNY 08:40 08:42 0.03 hrs 0.00 hrs 0.00 nm 0.00 gal 0.00 gal/hr 0.00 gal/nm 0 msl 0 kts
Sun, Mar 31, 2019 KVNY KVNY 08:23 08:25 0.03 hrs 0.00 hrs 0.00 nm 32.05 gal 953.55 gal/hr 0.00 gal/nm 0 msl 0 kts
Sat, Mar 30, 2019 KSBA KVNY 19:19 20:04 0.72 hrs 0.54 hrs 72.82 nm 7.87 gal 10.93 gal/hr 0.11 gal/nm 7563 msl 128 kts
Sat, Mar 30, 2019     18:44 18:45 0.01 hrs 0.00 hrs 0.00 nm 0.05 gal 7.20 gal/hr 0.00 gal/nm 0 msl 0 kts
Sat, Mar 30, 2019 KVNY KSBA 14:39 15:34 0.87 hrs 0.53 hrs 71.34 nm 8.08 gal 9.32 gal/hr 0.11 gal/nm 6695 msl 127 kts
Sat, Mar 30, 2019 KVNY KVNY 13:27 14:10 0.68 hrs 0.46 hrs 56.41 nm 6.94 gal 10.23 gal/hr 0.12 gal/nm 3959 msl 115 kts
Sat, Mar 30, 2019     13:13 13:13 0 hrs 0.00 hrs 0.00 nm 0.08 gal 24.00 gal/hr 0.00 gal/nm 0 msl 0 kts
Sat, Mar 30, 2019 KVNY KVNY 13:05 13:07 0.03 hrs 0.00 hrs 0.00 nm 0.27 gal 10.45 gal/hr 0.00 gal/nm 0 msl 0 kts
Sat, Mar 30, 2019 KVNY KVNY 10:42 11:53 1.11 hrs 0.75 hrs 86.27 nm 11.41 gal 10.32 gal/hr 0.13 gal/nm 3789 msl 107 kts
Sat, Mar 30, 2019 KVNY KVNY 09:12 10:18 1.05 hrs 0.59 hrs 55.99 nm 9.03 gal 8.64 gal/hr 0.16 gal/nm 1994 msl 90 kts
Sat, Mar 30, 2019 KVNY KVNY 08:55 08:57 0.03 hrs 0.00 hrs 0.00 nm 27.90 gal 1080.00 gal/hr 0.00 gal/nm 0 msl 0 kts
Fri, Mar 29, 2019 KVNY KVNY 19:05 21:19 2.06 hrs 1.76 hrs 224.97 nm 24.82 gal 12.05 gal/hr 0.11 gal/nm 4630 msl 118 kts
Fri, Mar 29, 2019 KVNY KVNY 18:53 18:55 0.03 hrs 0.00 hrs 0.00 nm 16.69 gal 632.46 gal/hr 0.00 gal/nm 0 msl 0 kts
Fri, Mar 29, 2019 KONT KVNY 17:37 18:23 0.73 hrs 0.38 hrs 51.76 nm 6.19 gal 8.51 gal/hr 0.12 gal/nm 6553 msl 128 kts
Fri, Mar 29, 2019 KVNY KONT 13:20 14:09 0.77 hrs 0.40 hrs 57.04 nm 6.22 gal 8.05 gal/hr 0.11 gal/nm 5565 msl 134 kts
Fri, Mar 29, 2019     13:14 13:14 0 hrs 0.00 hrs 0.00 nm 0.07 gal 22.91 gal/hr 0.00 gal/nm 0 msl 0 kts
Fri, Mar 29, 2019     12:41 12:41 0 hrs 0.00 hrs 0.00 nm 0.11 gal 33.00 gal/hr 0.00 gal/nm 0 msl 0 kts
Fri, Mar 29, 2019 KCMA KVNY 12:06 12:40 0.52 hrs 0.33 hrs 45.14 nm 6.12 gal 11.80 gal/hr 0.14 gal/nm 3513 msl 123 kts
Fri, Mar 29, 2019 KVNY KCMA 10:02 10:42 0.63 hrs 0.28 hrs 35.21 nm 5.45 gal 8.71 gal/hr 0.15 gal/nm 3643 msl 119 kts
Fri, Mar 29, 2019 KVNY KVNY 09:28 09:29 0.03 hrs 0.00 hrs 0.00 nm 17.40 gal 666.38 gal/hr 0.00 gal/nm 0 msl 0 kts
Thu, Mar 28, 2019 KVNY KVNY 16:12 17:41 1.4 hrs 0.95 hrs 123.67 nm 14.07 gal 10.07 gal/hr 0.11 gal/nm 5152 msl 122 kts
Thu, Mar 28, 2019 KVNY KVNY 13:30 14:28 0.91 hrs 0.66 hrs 84.22 nm 10.30 gal 11.33 gal/hr 0.12 gal/nm 4818 msl 119 kts
Wed, Mar 27, 2019 KVNY KVNY 14:28 16:11 1.63 hrs 1.12 hrs 127.09 nm 16.28 gal 9.99 gal/hr 0.13 gal/nm 3337 msl 107 kts
Wed, Mar 27, 2019 KVNY KVNY 14:17 14:18 0.02 hrs 0.00 hrs 0.00 nm 19.26 gal 866.70 gal/hr 0.00 gal/nm 0 msl 0 kts
Wed, Mar 27, 2019     12:53 12:53 0.01 hrs 0.00 hrs 0.00 nm 0.02 gal 1.86 gal/hr 0.00 gal/nm 0 msl 0 kts
Wed, Mar 27, 2019     12:44 12:45 0.01 hrs 0.00 hrs 0.00 nm 0.01 gal 2.06 gal/hr 0.00 gal/nm 0 msl 0 kts
Wed, Mar 27, 2019 KVNY KVNY 11:41 12:44 0.04 hrs 0.00 hrs 0.00 nm 0.08 gal 1.82 gal/hr 0.00 gal/nm 0 msl 0 kts
Wed, Mar 27, 2019 KVNY KVNY 11:13 11:14 0.01 hrs 0.00 hrs 0.00 nm 17.71 gal 1202.94 gal/hr 0.00 gal/nm 0 msl 0 kts
Wed, Mar 27, 2019 KVNY KVNY 10:26 10:49 0.38 hrs 0.20 hrs 20.07 nm 3.15 gal 8.25 gal/hr 0.16 gal/nm 1840 msl 98 kts
Wed, Mar 27, 2019 KVNY KVNY 09:53 10:23 0.48 hrs 0.22 hrs 22.80 nm 3.73 gal 7.76 gal/hr 0.16 gal/nm 1946 msl 98 kts
Wed, Mar 27, 2019     09:12 09:12 0.01 hrs 0.00 hrs 0.00 nm 0.12 gal 10.80 gal/hr 0.00 gal/nm 0 msl 0 kts
Wed, Mar 27, 2019 KVNY KVNY 07:58 08:00 0.03 hrs 0.00 hrs 0.00 nm 16.12 gal 542.36 gal/hr 0.00 gal/nm 0 msl 0 kts
Wed, Mar 27, 2019 KVNY KVNY 07:22 08:22 0.37 hrs 0.08 hrs 8.51 nm 1.92 gal 5.17 gal/hr 0.23 gal/nm 1655 msl 97 kts
Tue, Mar 26, 2019 KVNY KVNY 16:56 18:14 1.24 hrs 0.79 hrs 80.71 nm 11.54 gal 9.32 gal/hr 0.14 gal/nm 2055 msl 96 kts
Tue, Mar 26, 2019     16:32 16:33 0.01 hrs 0.00 hrs 0.00 nm 26.12 gal 1774.19 gal/hr 0.00 gal/nm 0 msl 0 kts
Tue, Mar 26, 2019 KVNY KVNY 11:48 14:38 2.7 hrs 2.06 hrs 248.14 nm 30.30 gal 11.23 gal/hr 0.12 gal/nm 5666 msl 114 kts
Tue, Mar 26, 2019 KVNY KVNY 11:31 11:32 0.02 hrs 0.00 hrs 0.00 nm 0.13 gal 5.85 gal/hr 0.00 gal/nm 0 msl 0 kts
Tue, Mar 26, 2019 KVNY KVNY 09:58 10:00 0.04 hrs 0.00 hrs 0.00 nm 0.08 gal 1.95 gal/hr 0.00 gal/nm 0 msl 0 kts
Tue, Mar 26, 2019 KVNY KVNY 09:49 09:50 0.03 hrs 0.00 hrs 0.00 nm 0.06 gal 2.28 gal/hr 0.00 gal/nm 0 msl 0 kts
Tue, Mar 26, 2019 KVNY KVNY 09:43 09:46 0.06 hrs 0.00 hrs 0.00 nm 0.13 gal 2.27 gal/hr 0.00 gal/nm 0 msl 0 kts
Tue, Mar 26, 2019 KVNY KVNY 08:08 08:22 0.23 hrs 0.00 hrs 0.00 nm 0.55 gal 2.40 gal/hr 0.00 gal/nm 0 msl 0 kts
Mon, Mar 25, 2019 KSBA KVNY 22:13 22:55 0.65 hrs 0.53 hrs 72.22 nm 7.57 gal 11.62 gal/hr 0.10 gal/nm 7551 msl 127 kts
Mon, Mar 25, 2019 KSBA KSBA 21:40 22:06 0.41 hrs 0.19 hrs 22.68 nm 3.34 gal 8.15 gal/hr 0.15 gal/nm 3731 msl 112 kts
Mon, Mar 25, 2019 KVNY KSBA 17:28 18:23 0.86 hrs 0.52 hrs 71.55 nm 7.87 gal 9.12 gal/hr 0.11 gal/nm 6611 msl 129 kts
Mon, Mar 25, 2019 KVNY KVNY 15:14 16:46 1.46 hrs 0.82 hrs 91.29 nm 11.66 gal 7.99 gal/hr 0.13 gal/nm 3638 msl 106 kts
Mon, Mar 25, 2019     15:06 15:06 0 hrs 0.00 hrs 0.00 nm 0.00 gal 0.31 gal/hr 0.00 gal/nm 0 msl 0 kts
Mon, Mar 25, 2019 KVNY KVNY 14:45 14:49 0.08 hrs 0.00 hrs 0.00 nm 0.19 gal 2.53 gal/hr 0.00 gal/nm 0 msl 0 kts
Mon, Mar 25, 2019 KVNY KVNY 13:10 14:21 1.13 hrs 0.68 hrs 83.14 nm 10.97 gal 9.68 gal/hr 0.13 gal/nm 3848 msl 117 kts
Mon, Mar 25, 2019 KVNY KVNY 10:20 12:06 1.67 hrs 1.12 hrs 124.31 nm 15.67 gal 9.36 gal/hr 0.13 gal/nm 3733 msl 107 kts
Mon, Mar 25, 2019 KVNY KVNY 09:35 09:36 0.02 hrs 0.00 hrs 0.00 nm 0.15 gal 6.75 gal/hr 0.00 gal/nm 0 msl 0 kts
Sun, Mar 24, 2019 KIZA KVNY 20:18 21:10 0.8 hrs 0.68 hrs 86.29 nm 9.12 gal 11.46 gal/hr 0.11 gal/nm 7511 msl 116 kts
Sun, Mar 24, 2019 KVNY KIZA 16:45 18:47 1.91 hrs 0.95 hrs 116.82 nm 14.79 gal 7.76 gal/hr 0.13 gal/nm 6528 msl 114 kts
Sun, Mar 24, 2019 KVNY KVNY 14:56 16:24 1.36 hrs 0.93 hrs 106.60 nm 13.32 gal 9.77 gal/hr 0.12 gal/nm 3927 msl 105 kts
Sun, Mar 24, 2019 KVNY KVNY 14:41 14:43 0.04 hrs 0.00 hrs 0.00 nm 24.47 gal 647.74 gal/hr 0.00 gal/nm 0 msl 0 kts
Sun, Mar 24, 2019 KVNY KVNY 12:46 14:23 1.54 hrs 0.85 hrs 97.93 nm 13.45 gal 8.73 gal/hr 0.14 gal/nm 5590 msl 111 kts
Sat, Mar 23, 2019     17:00 17:01 0.01 hrs 0.00 hrs 0.00 nm 0.01 gal 0.92 gal/hr 0.00 gal/nm 0 msl 0 kts
Sat, Mar 23, 2019 KVNY KVNY 09:24 11:05 1.6 hrs 0.85 hrs 110.59 nm 13.62 gal 8.52 gal/hr 0.12 gal/nm 5041 msl 121 kts
Sat, Mar 23, 2019 KVNY KVNY 09:21 09:23 0.04 hrs 0.00 hrs 0.00 nm 0.00 gal 0.00 gal/hr 0.00 gal/nm 0 msl 0 kts
Sat, Mar 23, 2019 KVNY KVNY 09:06 09:08 0.02 hrs 0.00 hrs 0.00 nm 26.89 gal 1466.73 gal/hr 0.00 gal/nm 0 msl 0 kts
Fri, Mar 22, 2019 KVGT KVNY 20:29 23:44 2.11 hrs 1.71 hrs 248.54 nm 35.43 gal 16.78 gal/hr 0.14 gal/nm 10031 msl 135 kts
Fri, Mar 22, 2019     17:49 17:50 0.01 hrs 0.00 hrs 0.00 nm 1.15 gal 106.15 gal/hr 0.00 gal/nm 0 msl 0 kts
Fri, Mar 22, 2019 KVGT KVGT 12:35 12:37 0.03 hrs 0.00 hrs 0.00 nm 0.11 gal 3.27 gal/hr 0.00 gal/nm 0 msl 0 kts
Fri, Mar 22, 2019 KVGT KVGT 11:40 11:43 0.06 hrs 0.00 hrs 0.00 nm 0.04 gal 0.72 gal/hr 0.00 gal/nm 0 msl 0 kts
Fri, Mar 22, 2019 KVGT KVGT 10:51 10:54 0.05 hrs 0.00 hrs 0.00 nm 0.00 gal 0.00 gal/hr 0.00 gal/nm 0 msl 0 kts
Fri, Mar 22, 2019 KVGT KVGT 09:28 09:31 0.05 hrs 0.00 hrs 0.00 nm 0.00 gal 0.00 gal/hr 0.00 gal/nm 0 msl 0 kts
Thu, Mar 21, 2019 KVGT KVGT 10:10 15:19 0.15 hrs 0.00 hrs 0.00 nm 0.09 gal 0.58 gal/hr 0.00 gal/nm 0 msl 0 kts
Thu, Mar 21, 2019 KVGT KVGT 09:17 14:19 0.04 hrs 0.00 hrs 0.00 nm 0.11 gal 2.93 gal/hr 0.00 gal/nm 0 msl 0 kts
Thu, Mar 7, 2019     14:06 14:07 0.01 hrs 0.00 hrs 0.00 nm 0.07 gal 6.46 gal/hr 0.00 gal/nm 0 msl 0 kts
Thu, Mar 7, 2019     11:26 11:26 0 hrs 0.00 hrs 0.00 nm 0.00 gal 0.00 gal/hr 0.00 gal/nm 0 msl 0 kts
Tue, Mar 5, 2019 KVGT KVGT 15:10 15:12 0.03 hrs 0.00 hrs 0.00 nm 0.04 gal 1.55 gal/hr 0.00 gal/nm 0 msl 0 kts
Tue, Mar 5, 2019 KVGT KVGT 15:01 15:08 0.11 hrs 0.00 hrs 0.00 nm 0.41 gal 3.75 gal/hr 0.00 gal/nm 0 msl 0 kts
Sun, Mar 3, 2019 KVNY KVGT 07:25 09:12 1.7 hrs 1.40 hrs 235.49 nm 17.99 gal 10.58 gal/hr 0.08 gal/nm 11014 msl 159 kts
Sun, Mar 3, 2019     07:24 07:24 0.01 hrs 0.00 hrs 0.00 nm 0.00 gal 0.00 gal/hr 0.00 gal/nm 0 msl 0 kts
Sun, Mar 3, 2019     07:19 07:19 0.01 hrs 0.00 hrs 0.00 nm 0.12 gal 10.80 gal/hr 0.00 gal/nm 0 msl 0 kts
Fri, Mar 1, 2019 KCMA KVNY 10:12 10:51 0.62 hrs 0.38 hrs 50.40 nm 6.63 gal 10.74 gal/hr 0.13 gal/nm 5052 msl 125 kts
Fri, Mar 1, 2019 KVNY KCMA 07:35 09:15 1.56 hrs 0.81 hrs 86.33 nm 13.52 gal 8.65 gal/hr 0.16 gal/nm 4020 msl 100 kts
Fri, Mar 1, 2019     07:17 07:17 0 hrs 0.00 hrs 0.00 nm 0.04 gal 12.00 gal/hr 0.00 gal/nm 0 msl 0 kts
Thu, Feb 28, 2019 KVNY KVNY 17:09 18:07 0.91 hrs 0.58 hrs 64.28 nm 8.19 gal 9.00 gal/hr 0.13 gal/nm 2119 msl 103 kts
Thu, Feb 28, 2019     13:16 13:16 0.01 hrs 0.00 hrs 0.00 nm 0.10 gal 13.85 gal/hr 0.00 gal/nm 0 msl 0 kts
Thu, Feb 28, 2019 KVNY KVNY 11:47 11:57 0.17 hrs 0.00 hrs 0.00 nm 0.35 gal 1.98 gal/hr 0.00 gal/nm 0 msl 0 kts
Thu, Feb 28, 2019 KVNY KVNY 11:02 11:06 0.07 hrs 0.00 hrs 0.00 nm 0.14 gal 2.01 gal/hr 0.00 gal/nm 0 msl 0 kts
Wed, Feb 27, 2019 KVNY KVNY 16:08 16:11 0.06 hrs 0.00 hrs 0.00 nm 0.13 gal 2.22 gal/hr 0.00 gal/nm 0 msl 0 kts
Wed, Feb 27, 2019 KVNY KVNY 15:59 16:01 0.05 hrs 0.00 hrs 0.00 nm 0.09 gal 2.09 gal/hr 0.00 gal/nm 0 msl 0 kts
Tue, Feb 26, 2019 KVNY KVNY 15:37 15:39 0.04 hrs 0.00 hrs 0.00 nm 0.07 gal 1.98 gal/hr 0.00 gal/nm 0 msl 0 kts
Tue, Feb 26, 2019 KVNY KVNY 13:42 13:45 0.05 hrs 0.00 hrs 0.00 nm 0.11 gal 2.22 gal/hr 0.00 gal/nm 0 msl 0 kts
Mon, Feb 25, 2019 KVNY KVNY 07:39 07:40 0.02 hrs 0.00 hrs 0.00 nm 0.05 gal 2.45 gal/hr 0.00 gal/nm 0 msl 0 kts
Mon, Feb 25, 2019     07:31 07:31 0 hrs 0.00 hrs 0.00 nm 0.05 gal 15.00 gal/hr 0.00 gal/nm 0 msl 0 kts
Sun, Feb 24, 2019 KVNY KVNY 07:04 07:52 0.76 hrs 0.46 hrs 56.87 nm 6.44 gal 8.45 gal/hr 0.11 gal/nm 5531 msl 117 kts
Sun, Feb 24, 2019     06:43 06:43 0.01 hrs 0.00 hrs 0.00 nm 0.02 gal 2.77 gal/hr 0.00 gal/nm 0 msl 0 kts
Sat, Feb 23, 2019 KVNY KVNY 16:28 17:40 1.14 hrs 0.82 hrs 87.44 nm 11.77 gal 10.37 gal/hr 0.13 gal/nm 2043 msl 99 kts
Sat, Feb 23, 2019 KVNY KVNY 16:18 16:20 0.02 hrs 0.00 hrs 0.00 nm 0.21 gal 9.45 gal/hr 0.00 gal/nm 0 msl 0 kts
Sat, Feb 23, 2019     15:24 15:25 0.02 hrs 0.00 hrs 0.00 nm 0.02 gal 1.07 gal/hr 0.00 gal/nm 0 msl 0 kts
Sat, Feb 23, 2019 KVNY KVNY 13:36 14:54 1.24 hrs 0.96 hrs 121.31 nm 12.84 gal 10.38 gal/hr 0.11 gal/nm 4733 msl 119 kts
Sat, Feb 23, 2019 KVNY KVNY 10:54 12:00 1.05 hrs 0.58 hrs 70.80 nm 8.23 gal 7.84 gal/hr 0.12 gal/nm 4183 msl 115 kts
Sat, Feb 23, 2019 KVNY KVNY 10:23 10:23 0.01 hrs 0.00 hrs 0.00 nm 17.60 gal 1584.00 gal/hr 0.00 gal/nm 0 msl 0 kts
Sat, Feb 23, 2019 KVNY KVNY 08:44 09:58 1.18 hrs 0.64 hrs 75.51 nm 9.07 gal 7.67 gal/hr 0.12 gal/nm 3804 msl 112 kts
Sat, Feb 23, 2019 KVNY KVNY 08:38 08:40 0.05 hrs 0.00 hrs 0.00 nm 0.00 gal 0.00 gal/hr 0.00 gal/nm 0 msl 0 kts
Sat, Feb 23, 2019     08:20 08:20 0.01 hrs 0.00 hrs 0.00 nm 0.00 gal 0.00 gal/hr 0.00 gal/nm 0 msl 0 kts
Sat, Feb 23, 2019     08:19 08:19 0 hrs 0.00 hrs 0.00 nm 12.76 gal 3828.00 gal/hr 0.00 gal/nm 0 msl 0 kts
Fri, Feb 22, 2019 KSBA KVNY 17:47 18:34 0.74 hrs 0.52 hrs 73.47 nm 7.25 gal 9.82 gal/hr 0.10 gal/nm 7618 msl 134 kts
Fri, Feb 22, 2019 KVNY KSBA 16:16 17:17 0.97 hrs 0.52 hrs 70.09 nm 7.64 gal 7.88 gal/hr 0.11 gal/nm 6919 msl 129 kts
Fri, Feb 22, 2019 KVNY KVNY 08:45 09:31 0.73 hrs 0.24 hrs 24.39 nm 4.35 gal 5.95 gal/hr 0.18 gal/nm 1882 msl 92 kts
Wed, Feb 20, 2019     17:52 17:52 0 hrs 0.00 hrs 0.00 nm 0.16 gal 48.00 gal/hr 0.00 gal/nm 0 msl 0 kts
Wed, Feb 20, 2019 KVNY KVNY 16:20 17:49 1.41 hrs 1.15 hrs 117.87 nm 15.40 gal 10.91 gal/hr 0.13 gal/nm 2012 msl 97 kts
Wed, Feb 20, 2019     16:14 16:15 0.01 hrs 0.00 hrs 0.00 nm 0.39 gal 26.49 gal/hr 0.00 gal/nm 0 msl 0 kts
Wed, Feb 20, 2019 KVNY KVNY 15:00 15:10 0.16 hrs 0.00 hrs 0.00 nm 0.49 gal 3.11 gal/hr 0.00 gal/nm 0 msl 0 kts
Wed, Feb 20, 2019     12:22 12:23 0.01 hrs 0.00 hrs 0.00 nm 0.10 gal 9.23 gal/hr 0.00 gal/nm 0 msl 0 kts
Tue, Feb 19, 2019     11:09 11:11 0.03 hrs 0.00 hrs 0.00 nm 0.34 gal 11.44 gal/hr 0.00 gal/nm 0 msl 0 kts
Tue, Feb 19, 2019     08:59 08:59 0 hrs 0.00 hrs 0.00 nm 0.17 gal 51.00 gal/hr 0.00 gal/nm 0 msl 0 kts
Sat, Feb 16, 2019 KVNY KVNY 08:41 09:39 0.93 hrs 0.29 hrs 35.43 nm 6.06 gal 6.55 gal/hr 0.17 gal/nm 7077 msl 112 kts
Sat, Feb 16, 2019 KVNY KVNY 07:17 07:18 0.01 hrs 0.00 hrs 0.00 nm 23.43 gal 2162.77 gal/hr 0.00 gal/nm 0 msl 0 kts
Fri, Feb 15, 2019 KVNY KVNY 12:16 12:19 0.06 hrs 0.00 hrs 0.00 nm 0.13 gal 2.18 gal/hr 0.00 gal/nm 0 msl 0 kts
Fri, Feb 15, 2019     09:40 09:41 0 hrs 0.00 hrs 0.00 nm 0.03 gal 9.82 gal/hr 0.00 gal/nm 0 msl 0 kts
Fri, Feb 15, 2019 KVNY KVNY 07:57 09:00 1.01 hrs 0.64 hrs 63.95 nm 8.90 gal 8.80 gal/hr 0.14 gal/nm 2139 msl 95 kts
Fri, Feb 15, 2019 KVNY KVNY 07:23 07:25 0.03 hrs 0.00 hrs 0.00 nm 28.62 gal 1107.87 gal/hr 0.00 gal/nm 0 msl 0 kts
Thu, Feb 14, 2019 KVNY KVNY 10:55 10:59 0.06 hrs 0.00 hrs 0.00 nm 0.08 gal 1.25 gal/hr 0.00 gal/nm 0 msl 0 kts
Tue, Feb 12, 2019 KVNY KVNY 16:33 17:50 1.22 hrs 0.81 hrs 97.42 nm 11.77 gal 9.68 gal/hr 0.12 gal/nm 5607 msl 112 kts
Tue, Feb 12, 2019 KVNY KVNY 16:28 16:28 0.01 hrs 0.00 hrs 0.00 nm 28.89 gal 2600.10 gal/hr 0.00 gal/nm 0 msl 0 kts
Mon, Feb 11, 2019 KVNY KVNY 15:17 17:37 2.22 hrs 1.59 hrs 176.78 nm 23.38 gal 10.53 gal/hr 0.13 gal/nm 4696 msl 105 kts
Mon, Feb 11, 2019     15:05 15:05 0 hrs 0.00 hrs 0.00 nm 0.02 gal 6.00 gal/hr 0.00 gal/nm 0 msl 0 kts
Sun, Feb 10, 2019 KVNY KVNY 15:07 16:39 1.45 hrs 0.92 hrs 92.74 nm 13.41 gal 9.28 gal/hr 0.14 gal/nm 2353 msl 95 kts
Sun, Feb 10, 2019 KVNY KVNY 13:16 13:55 0.61 hrs 0.16 hrs 15.84 nm 3.26 gal 5.31 gal/hr 0.21 gal/nm 2106 msl 92 kts
Sun, Feb 10, 2019 KVNY KVNY 09:53 11:36 1.64 hrs 1.06 hrs 109.05 nm 15.87 gal 9.66 gal/hr 0.15 gal/nm 1964 msl 97 kts
Sun, Feb 10, 2019 KVNY KVNY 08:19 08:25 0.1 hrs 0.00 hrs 0.00 nm 20.41 gal 208.15 gal/hr 0.00 gal/nm 0 msl 0 kts
Sat, Feb 9, 2019 KCMA KVNY 15:03 17:08 1.98 hrs 1.52 hrs 143.63 nm 20.89 gal 10.54 gal/hr 0.15 gal/nm 7308 msl 89 kts
Sat, Feb 9, 2019 KVNY KCMA 11:36 13:51 2.15 hrs 1.06 hrs 119.54 nm 17.35 gal 8.06 gal/hr 0.15 gal/nm 6642 msl 106 kts
Sat, Feb 9, 2019 KVNY KVNY 10:43 10:48 0.08 hrs 0.00 hrs 0.00 nm 29.17 gal 368.46 gal/hr 0.00 gal/nm 0 msl 0 kts
Fri, Feb 8, 2019 KVNY KVNY 14:57 15:48 0.82 hrs 0.56 hrs 75.51 nm 9.33 gal 11.40 gal/hr 0.12 gal/nm 3659 msl 127 kts
Fri, Feb 8, 2019 KVNY KVNY 11:00 11:02 0.03 hrs 0.00 hrs 0.00 nm 0.16 gal 6.19 gal/hr 0.00 gal/nm 0 msl 0 kts
Fri, Feb 8, 2019 KVNY KVNY 08:59 10:09 1.12 hrs 0.81 hrs 82.09 nm 11.32 gal 10.09 gal/hr 0.14 gal/nm 2040 msl 94 kts
Fri, Feb 8, 2019 KVNY KVNY 08:53 08:58 0.09 hrs 0.00 hrs 0.00 nm 0.00 gal 0.00 gal/hr 0.00 gal/nm 0 msl 0 kts
Fri, Feb 8, 2019 KVNY KVNY 08:41 08:42 0.02 hrs 0.00 hrs 0.00 nm 18.28 gal 822.60 gal/hr 0.00 gal/nm 0 msl 0 kts
Thu, Feb 7, 2019 KVNY KVNY 16:46 17:44 0.93 hrs 0.49 hrs 51.30 nm 7.34 gal 7.87 gal/hr 0.14 gal/nm 2031 msl 99 kts
Thu, Feb 7, 2019     16:35 16:35 0 hrs 0.00 hrs 0.00 nm 0.06 gal 18.00 gal/hr 0.00 gal/nm 0 msl 0 kts
Thu, Feb 7, 2019 KWJF KVNY 09:36 10:06 0.47 hrs 0.28 hrs 38.14 nm 4.53 gal 9.65 gal/hr 0.12 gal/nm 6519 msl 128 kts
Thu, Feb 7, 2019 KVNY KWJF 08:35 09:17 0.66 hrs 0.35 hrs 45.11 nm 6.38 gal 9.73 gal/hr 0.14 gal/nm 5608 msl 122 kts
Wed, Feb 6, 2019     18:25 18:25 0.01 hrs 0.00 hrs 0.00 nm 0.08 gal 11.08 gal/hr 0.00 gal/nm 0 msl 0 kts
Wed, Feb 6, 2019 KVNY KVNY 13:07 14:35 1.39 hrs 0.65 hrs 82.69 nm 11.08 gal 7.95 gal/hr 0.13 gal/nm 5014 msl 122 kts
Wed, Feb 6, 2019     12:57 12:57 0 hrs 0.00 hrs 0.00 nm 15.81 gal 4743.00 gal/hr 0.00 gal/nm 0 msl 0 kts
Tue, Feb 5, 2019 KVNY KVNY 14:35 15:57 1.29 hrs 0.76 hrs 90.76 nm 10.11 gal 7.85 gal/hr 0.11 gal/nm 4936 msl 112 kts
Tue, Feb 5, 2019     14:12 14:12 0 hrs 0.00 hrs 0.00 nm 0.00 gal 0.00 gal/hr 0.00 gal/nm 0 msl 0 kts
Mon, Feb 4, 2019 KVNY KVNY 15:08 17:23 2.11 hrs 1.17 hrs 124.54 nm 18.09 gal 8.59 gal/hr 0.15 gal/nm 2191 msl 98 kts
Mon, Feb 4, 2019     14:56 14:56 0.01 hrs 0.00 hrs 0.00 nm 0.01 gal 1.38 gal/hr 0.00 gal/nm 0 msl 0 kts
Sat, Feb 2, 2019 KVNY KVNY 17:19 17:52 0.53 hrs 0.24 hrs 25.71 nm 3.59 gal 6.77 gal/hr 0.14 gal/nm 3812 msl 102 kts
Sat, Feb 2, 2019     16:49 16:49 0 hrs 0.00 hrs 0.00 nm 0.01 gal 3.00 gal/hr 0.00 gal/nm 0 msl 0 kts
Fri, Feb 1, 2019 KVNY KVNY 13:28 13:54 0.42 hrs 0.00 hrs 0.00 nm 1.22 gal 2.89 gal/hr 0.00 gal/nm 0 msl 0 kts
Tue, Jan 29, 2019     09:51 09:51 0.01 hrs 0.00 hrs 0.00 nm 0.01 gal 0.94 gal/hr 0.00 gal/nm 0 msl 0 kts
Mon, Jan 28, 2019 KVNY KVNY 14:31 14:52 0.35 hrs 0.00 hrs 0.00 nm 1.07 gal 3.08 gal/hr 0.00 gal/nm 0 msl 0 kts
Sun, Jan 27, 2019 KVNY KVNY 15:21 16:37 1.22 hrs 0.53 hrs 64.86 nm 8.58 gal 7.03 gal/hr 0.13 gal/nm 4874 msl 117 kts
Fri, Jan 25, 2019 KVNY KVNY 14:25 14:30 0.08 hrs 0.00 hrs 0.00 nm 0.09 gal 1.14 gal/hr 0.00 gal/nm 0 msl 0 kts
Fri, Jan 25, 2019 KVNY KVNY 08:00 08:09 0.15 hrs 0.00 hrs 0.00 nm 1.97 gal 13.00 gal/hr 0.00 gal/nm 0 msl 0 kts
Thu, Jan 24, 2019     15:11 15:11 0.01 hrs 0.00 hrs 0.00 nm 0.18 gal 24.92 gal/hr 0.00 gal/nm 0 msl 0 kts
Thu, Jan 24, 2019     15:00 15:01 0.01 hrs 0.00 hrs 0.00 nm 0.03 gal 3.03 gal/hr 0.00 gal/nm 0 msl 0 kts
Thu, Jan 24, 2019     14:49 14:49 0.01 hrs 0.00 hrs 0.00 nm 0.11 gal 15.23 gal/hr 0.00 gal/nm 0 msl 0 kts
Wed, Jan 23, 2019 KVNY KVNY 15:41 16:46 1.04 hrs 0.58 hrs 60.55 nm 8.97 gal 8.61 gal/hr 0.15 gal/nm 2048 msl 99 kts
Sun, Jan 20, 2019 KVNY KVNY 13:31 14:12 0.65 hrs 0.29 hrs 32.63 nm 4.85 gal 7.43 gal/hr 0.15 gal/nm 3199 msl 105 kts
Sat, Jan 19, 2019 KMHV KVNY 14:27 15:18 0.8 hrs 0.58 hrs 72.88 nm 8.70 gal 10.90 gal/hr 0.12 gal/nm 6640 msl 118 kts
Sat, Jan 19, 2019 KVNY KMHV 12:48 14:19 1.45 hrs 1.07 hrs 138.22 nm 17.10 gal 11.78 gal/hr 0.12 gal/nm 6929 msl 121 kts
Sat, Jan 19, 2019 KVNY KVNY 10:42 11:43 0.97 hrs 0.54 hrs 66.41 nm 8.08 gal 8.33 gal/hr 0.12 gal/nm 3701 msl 114 kts
Sat, Jan 19, 2019 KVNY KVNY 10:20 10:21 0.01 hrs 0.00 hrs 0.00 nm 25.81 gal 1753.13 gal/hr 0.00 gal/nm 0 msl 0 kts
Sun, Jan 13, 2019 KVNY KVNY 11:10 11:13 0.06 hrs 0.00 hrs 0.00 nm 0.06 gal 0.94 gal/hr 0.00 gal/nm 0 msl 0 kts
Fri, Jan 11, 2019     11:23 11:24 0.01 hrs 0.00 hrs 0.00 nm 0.00 gal 0.00 gal/hr 0.00 gal/nm 0 msl 0 kts
Fri, Jan 11, 2019 KVNY KVNY 11:18 12:18 1.62 hrs 1.24 hrs 124.85 nm 7.19 gal 4.43 gal/hr 0.06 gal/nm 1936 msl 95 kts
Fri, Jan 11, 2019 KVNY KVNY 11:08 11:11 0.04 hrs 0.00 hrs 0.00 nm 0.42 gal 10.22 gal/hr 0.00 gal/nm 0 msl 0 kts
Mon, Jan 7, 2019     15:32 15:33 0.01 hrs 0.00 hrs 0.00 nm 26.34 gal 1789.13 gal/hr 0.00 gal/nm 0 msl 0 kts
Mon, Jan 7, 2019     10:59 11:00 0.01 hrs 0.00 hrs 0.00 nm 0.00 gal 0.00 gal/hr 0.00 gal/nm 0 msl 0 kts
Sun, Jan 6, 2019 KVNY KVNY 11:52 13:33 0.66 hrs 0.29 hrs 29.62 nm 6.84 gal 10.32 gal/hr 0.23 gal/nm 2147 msl 98 kts
Sun, Jan 6, 2019 KVNY KVNY 11:26 11:28 0.02 hrs 0.00 hrs 0.00 nm 27.95 gal 1273.67 gal/hr 0.00 gal/nm 0 msl 0 kts
Sun, Jan 6, 2019 KVNY KVNY 08:29 09:30 0.95 hrs 0.68 hrs 78.44 nm 10.31 gal 10.85 gal/hr 0.13 gal/nm 4171 msl 106 kts
Sun, Jan 6, 2019 KVNY KVNY 08:14 08:22 0.14 hrs 0.00 hrs 0.00 nm 3.69 gal 26.36 gal/hr 0.00 gal/nm 0 msl 0 kts
Sat, Jan 5, 2019 KVNY KVNY 13:49 15:00 1.11 hrs 0.58 hrs 59.66 nm 9.40 gal 8.51 gal/hr 0.16 gal/nm 1873 msl 96 kts
Sat, Jan 5, 2019     13:26 13:27 0.01 hrs 0.00 hrs 0.00 nm 0.09 gal 6.11 gal/hr 0.00 gal/nm 0 msl 0 kts
Sun, Dec 30, 2018 KVNY KVNY 12:20 14:06 1.65 hrs 1.35 hrs 168.26 nm 14.75 gal 8.97 gal/hr 0.09 gal/nm 5510 msl 116 kts
Sun, Dec 30, 2018 KVNY KVNY 12:01 12:02 0.02 hrs 0.00 hrs 0.00 nm 27.22 gal 1484.73 gal/hr 0.00 gal/nm 0 msl 0 kts
Fri, Dec 21, 2018 KVNY KVNY 09:22 12:33 3.01 hrs 2.51 hrs 311.05 nm 40.27 gal 13.37 gal/hr 0.13 gal/nm 6810 msl 116 kts
Fri, Dec 21, 2018     09:13 09:13 0 hrs 0.00 hrs 0.00 nm 0.01 gal 3.60 gal/hr 0.00 gal/nm 0 msl 0 kts
Wed, Dec 19, 2018 KVNY KVNY 14:06 16:03 1.85 hrs 1.12 hrs 151.73 nm 16.06 gal 8.67 gal/hr 0.11 gal/nm 5510 msl 127 kts
Wed, Dec 19, 2018 KVNY KVNY 13:50 13:51 0.03 hrs 0.00 hrs 0.00 nm 27.15 gal 1039.79 gal/hr 0.00 gal/nm 0 msl 0 kts
Wed, Dec 19, 2018 KCMA KVNY 12:25 13:06 0.66 hrs 0.32 hrs 43.13 nm 6.57 gal 10.02 gal/hr 0.15 gal/nm 3618 msl 124 kts
Wed, Dec 19, 2018 KVNY KCMA 10:02 11:46 1.61 hrs 1.19 hrs 144.52 nm 18.16 gal 11.25 gal/hr 0.13 gal/nm 3633 msl 113 kts
Wed, Dec 19, 2018 KVNY KVNY 09:26 09:27 0.02 hrs 0.00 hrs 0.00 nm 0.02 gal 0.90 gal/hr 0.00 gal/nm 0 msl 0 kts
Tue, Dec 18, 2018     12:03 12:04 0.01 hrs 0.00 hrs 0.00 nm 0.04 gal 2.45 gal/hr 0.00 gal/nm 0 msl 0 kts
Mon, Dec 17, 2018 KVNY KVNY 14:36 17:19 2.56 hrs 1.86 hrs 215.45 nm 29.37 gal 11.49 gal/hr 0.14 gal/nm 5149 msl 108 kts
Sun, Dec 16, 2018 KVNY KVNY 14:07 15:01 0.85 hrs 0.54 hrs 52.51 nm 7.24 gal 8.49 gal/hr 0.14 gal/nm 1945 msl 90 kts
Sun, Dec 16, 2018     13:56 13:56 0 hrs 0.00 hrs 0.00 nm 0.54 gal 162.00 gal/hr 0.00 gal/nm 0 msl 0 kts
Sun, Dec 16, 2018 KVNY KVNY 10:36 13:01 2.28 hrs 1.36 hrs 170.75 nm 16.84 gal 7.40 gal/hr 0.10 gal/nm 5119 msl 119 kts
Sun, Dec 16, 2018 KVNY KVNY 10:25 10:26 0.01 hrs 0.00 hrs 0.00 nm 21.62 gal 1468.53 gal/hr 0.00 gal/nm 0 msl 0 kts
Sat, Dec 15, 2018 KVNY KVNY 12:56 14:36 1.57 hrs 1.27 hrs 152.08 nm 15.17 gal 9.66 gal/hr 0.10 gal/nm 5530 msl 112 kts
Sat, Dec 15, 2018 KVNY KVNY 12:17 12:19 0.03 hrs 0.00 hrs 0.00 nm 25.63 gal 862.32 gal/hr 0.00 gal/nm 0 msl 0 kts
Sat, Dec 15, 2018 KVNY KVNY 09:07 10:56 1.74 hrs 1.03 hrs 129.05 nm 15.51 gal 8.92 gal/hr 0.12 gal/nm 6512 msl 120 kts
Sat, Dec 15, 2018 KVNY KVNY 08:52 08:54 0.05 hrs 0.00 hrs 0.00 nm 23.70 gal 482.03 gal/hr 0.00 gal/nm 0 msl 0 kts
Fri, Dec 14, 2018 KSBA KVNY 17:16 18:07 0.81 hrs 0.63 hrs 83.92 nm 9.15 gal 11.34 gal/hr 0.11 gal/nm 5512 msl 125 kts
Fri, Dec 14, 2018 KVNY KSBA 15:31 16:54 1.3 hrs 0.64 hrs 88.43 nm 10.09 gal 7.79 gal/hr 0.11 gal/nm 4505 msl 130 kts
Fri, Dec 14, 2018     15:19 15:19 0.01 hrs 0.00 hrs 0.00 nm 0.06 gal 5.40 gal/hr 0.00 gal/nm 0 msl 0 kts
Wed, Dec 12, 2018 KCMA KVNY 11:44 12:34 0.79 hrs 0.35 hrs 43.00 nm 6.57 gal 8.34 gal/hr 0.15 gal/nm 3532 msl 116 kts
Wed, Dec 12, 2018     10:22 10:22 0.01 hrs 0.00 hrs 0.00 nm 15.80 gal 2187.69 gal/hr 0.00 gal/nm 0 msl 0 kts
Wed, Dec 12, 2018 KVNY KCMA 10:21 11:21 1.11 hrs 0.56 hrs 69.43 nm 6.61 gal 5.97 gal/hr 0.10 gal/nm 4698 msl 116 kts
Tue, Dec 11, 2018 KVNY KVNY 16:24 18:52 2.31 hrs 1.76 hrs 190.52 nm 26.29 gal 11.36 gal/hr 0.14 gal/nm 5169 msl 101 kts
Tue, Dec 11, 2018 KVNY KVNY 16:04 16:05 0.01 hrs 0.00 hrs 0.00 nm 17.94 gal 1218.57 gal/hr 0.00 gal/nm 0 msl 0 kts
Mon, Dec 10, 2018 KVNY KVNY 18:30 19:53 1.31 hrs 0.58 hrs 60.65 nm 9.54 gal 7.28 gal/hr 0.16 gal/nm 2084 msl 98 kts
Mon, Dec 10, 2018     18:17 18:17 0.01 hrs 0.00 hrs 0.00 nm 12.39 gal 1715.54 gal/hr 0.00 gal/nm 0 msl 0 kts
Mon, Dec 10, 2018 KVNY KVNY 14:31 15:46 1.16 hrs 0.82 hrs 0.00 nm 11.38 gal 9.78 gal/hr 0.00 gal/nm 5104 msl 106 kts
Mon, Dec 10, 2018 KVNY KVNY 14:19 14:20 0.01 hrs 0.00 hrs 0.00 nm 20.28 gal 1377.51 gal/hr 0.00 gal/nm 0 msl 0 kts
Sun, Dec 9, 2018 KVNY KVNY 14:19 15:26 1.05 hrs 0.64 hrs 79.59 nm 9.95 gal 9.44 gal/hr 0.12 gal/nm 3758 msl 115 kts
Sun, Dec 9, 2018     13:37 13:38 0.02 hrs 0.00 hrs 0.00 nm 0.12 gal 5.40 gal/hr 0.00 gal/nm 0 msl 0 kts
Sat, Dec 8, 2018 KSZP KVNY 15:09 15:35 0.42 hrs 0.28 hrs 33.76 nm 3.62 gal 8.54 gal/hr 0.11 gal/nm 3651 msl 115 kts
Sat, Dec 8, 2018 KVNY KSZP 12:26 13:54 1.38 hrs 1.06 hrs 136.75 nm 12.94 gal 9.36 gal/hr 0.09 gal/nm 4514 msl 121 kts
Sat, Dec 8, 2018 KVNY KVNY 11:50 11:51 0.02 hrs 0.00 hrs 0.00 nm 20.68 gal 1128.00 gal/hr 0.00 gal/nm 0 msl 0 kts
Thu, Dec 6, 2018 KVNY KVNY 12:44 12:45 0.02 hrs 0.00 hrs 0.00 nm 0.03 gal 1.61 gal/hr 0.00 gal/nm 0 msl 0 kts
Mon, Dec 3, 2018 KVNY KVNY 16:38 16:39 0.03 hrs 0.00 hrs 0.00 nm 0.09 gal 3.45 gal/hr 0.00 gal/nm 0 msl 0 kts
Mon, Dec 3, 2018 KCMA KVNY 15:14 15:59 0.74 hrs 0.52 hrs 61.61 nm 7.44 gal 10.06 gal/hr 0.12 gal/nm 3519 msl 114 kts
Mon, Dec 3, 2018     13:44 13:44 0 hrs 0.00 hrs 0.00 nm 0.04 gal 12.00 gal/hr 0.00 gal/nm 0 msl 0 kts
Wed, Nov 14, 2018     14:21 14:21 0 hrs 0.00 hrs 0.00 nm 0.01 gal 3.00 gal/hr 0.00 gal/nm 0 msl 0 kts
Thu, Oct 11, 2018 KCMA KCMA 14:01 14:01 0 hrs 0.00 hrs 0.00 nm 9.17 gal 2751.00 gal/hr 0.00 gal/nm 19989 msl 0 kts
Thu, Oct 11, 2018 KCMA KCMA 12:59 13:45 0.74 hrs 0.33 hrs 0.00 nm 0.25 gal 0.34 gal/hr 0.00 gal/nm 5791 msl 0 kts
Thu, Oct 11, 2018 KCMA KCMA 12:29 12:35 0.1 hrs 0.00 hrs 0.01 nm 26.44 gal 260.07 gal/hr 2644.00 gal/nm 203 msl 36 kts
Fri, Jun 1, 2018 KVNY KCMA 13:29 14:07 0.58 hrs 0.27 hrs 32.73 nm 4.54 gal 7.79 gal/hr 0.14 gal/nm 3032 msl 113 kts
Fri, Jun 1, 2018 KVNY KVNY 12:54 12:55 0.02 hrs 0.00 hrs 0.00 nm 18.04 gal 969.31 gal/hr 0.00 gal/nm 0 msl 0 kts
Fri, Jun 1, 2018 KVNY KVNY 08:51 09:31 0.64 hrs 0.00 hrs 0.00 nm 1.84 gal 2.89 gal/hr 0.00 gal/nm 0 msl 0 kts
Fri, Jun 1, 2018     08:42 08:42 0 hrs 0.00 hrs 0.00 nm 0.03 gal 9.00 gal/hr 0.00 gal/nm 0 msl 0 kts
Fri, Jun 1, 2018     08:38 08:38 0 hrs 0.00 hrs 0.00 nm 0.04 gal 12.00 gal/hr 0.00 gal/nm 0 msl 0 kts
Fri, Jun 1, 2018     08:32 08:33 0 hrs 0.00 hrs 0.00 nm 4.66 gal 1525.09 gal/hr 0.00 gal/nm 0 msl 0 kts
Thu, May 31, 2018 KSMO KVNY 17:07 17:28 0.32 hrs 0.17 hrs 21.10 nm 2.95 gal 9.17 gal/hr 0.14 gal/nm 2985 msl 113 kts
Thu, May 31, 2018 KSMO KSMO 16:16 16:22 0.11 hrs 0.00 hrs 0.00 nm 0.33 gal 3.15 gal/hr 0.00 gal/nm 0 msl 0 kts
Wed, May 30, 2018 KSMO KSMO 15:44 15:53 0.14 hrs 0.00 hrs 0.00 nm 0.44 gal 3.24 gal/hr 0.00 gal/nm 0 msl 0 kts
Wed, May 30, 2018 KSMO KSMO 15:39 15:40 0.03 hrs 0.00 hrs 0.00 nm 0.01 gal 0.42 gal/hr 0.00 gal/nm 0 msl 0 kts
Tue, May 29, 2018     10:59 11:00 0 hrs 0.00 hrs 0.00 nm 0.03 gal 9.82 gal/hr 0.00 gal/nm 0 msl 0 kts
Tue, May 29, 2018 KVNY KSMO 10:36 10:57 0.33 hrs 0.12 hrs 13.07 nm 2.18 gal 6.63 gal/hr 0.17 gal/nm 2688 msl 106 kts
Mon, May 28, 2018 KVNY KVNY 10:42 11:36 0.84 hrs 0.55 hrs 72.42 nm 8.38 gal 10.01 gal/hr 0.12 gal/nm 4657 msl 124 kts
Mon, May 28, 2018 KVNY KVNY 10:25 10:25 0.01 hrs 0.00 hrs 0.00 nm 26.59 gal 2393.10 gal/hr 0.00 gal/nm 0 msl 0 kts
Sun, May 27, 2018 KLAS KVNY 09:18 11:23 1.95 hrs 1.67 hrs 226.64 nm 23.94 gal 12.29 gal/hr 0.11 gal/nm 8565 msl 128 kts
Sat, May 26, 2018     18:43 18:44 0.02 hrs 0.00 hrs 0.00 nm 0.33 gal 17.73 gal/hr 0.00 gal/nm 0 msl 0 kts
Sat, May 26, 2018 KVNY KLAS 16:41 18:42 1.92 hrs 1.61 hrs 236.86 nm 23.90 gal 12.47 gal/hr 0.10 gal/nm 7533 msl 139 kts
Sat, May 26, 2018 KVNY KVNY 15:57 16:26 0.45 hrs 0.23 hrs 23.16 nm 3.78 gal 8.31 gal/hr 0.16 gal/nm 1797 msl 94 kts
Sat, May 26, 2018 KVNY KVNY 13:49 14:41 0.82 hrs 0.58 hrs 59.52 nm 8.46 gal 10.29 gal/hr 0.14 gal/nm 2178 msl 97 kts
Sat, May 26, 2018     13:30 13:30 0.01 hrs 0.00 hrs 0.00 nm 16.40 gal 2270.77 gal/hr 0.00 gal/nm 0 msl 0 kts
Sat, May 26, 2018 KVNY KVNY 09:19 10:46 1.35 hrs 1.12 hrs 122.01 nm 14.51 gal 10.75 gal/hr 0.12 gal/nm 5020 msl 101 kts
Sat, May 26, 2018 KVNY KVNY 09:15 09:19 0.06 hrs 0.00 hrs 0.00 nm 0.00 gal 0.00 gal/hr 0.00 gal/nm 0 msl 0 kts
Sat, May 26, 2018 KVNY KVNY 09:00 09:02 0.02 hrs 0.00 hrs 0.00 nm 27.25 gal 1241.77 gal/hr 0.00 gal/nm 0 msl 0 kts
Fri, May 25, 2018 KVNY KVNY 15:17 16:42 1.33 hrs 0.87 hrs 94.69 nm 13.01 gal 9.81 gal/hr 0.14 gal/nm 3976 msl 102 kts
Fri, May 25, 2018 KVNY KVNY 14:57 15:01 0.06 hrs 0.00 hrs 0.00 nm 24.07 gal 401.17 gal/hr 0.00 gal/nm 0 msl 0 kts
Fri, May 25, 2018 KVNY KVNY 08:26 10:33 1.99 hrs 1.26 hrs 156.47 nm 22.78 gal 11.45 gal/hr 0.15 gal/nm 2686 msl 117 kts
Thu, May 24, 2018 KVNY KVNY 15:26 16:49 1.29 hrs 0.77 hrs 87.00 nm 12.79 gal 9.90 gal/hr 0.15 gal/nm 2451 msl 105 kts
Thu, May 24, 2018 KVNY KVNY 12:32 14:22 1.72 hrs 1.10 hrs 127.93 nm 14.19 gal 8.23 gal/hr 0.11 gal/nm 5012 msl 110 kts
Thu, May 24, 2018 KVNY KVNY 12:20 12:22 0.03 hrs 0.00 hrs 0.00 nm 27.38 gal 1059.87 gal/hr 0.00 gal/nm 0 msl 0 kts
Thu, May 24, 2018 KVNY KVNY 09:27 09:45 0.28 hrs 0.06 hrs 6.53 nm 1.40 gal 5.00 gal/hr 0.21 gal/nm 1774 msl 99 kts
Thu, May 24, 2018 KVNY KVNY 09:24 09:27 0.04 hrs 0.00 hrs 0.00 nm 0.00 gal 0.00 gal/hr 0.00 gal/nm 0 msl 0 kts
Thu, May 24, 2018 KVNY KVNY 09:15 09:15 0.01 hrs 0.00 hrs 0.00 nm 17.32 gal 1558.80 gal/hr 0.00 gal/nm 0 msl 0 kts
Wed, May 23, 2018 KVNY KVNY 12:51 14:27 1.5 hrs 1.15 hrs 136.25 nm 13.32 gal 8.87 gal/hr 0.10 gal/nm 5067 msl 111 kts
Wed, May 23, 2018 KVNY KVNY 12:27 12:28 0.01 hrs 0.00 hrs 0.00 nm 19.72 gal 1339.47 gal/hr 0.00 gal/nm 0 msl 0 kts
Tue, May 22, 2018 KVNY KVNY 17:08 18:30 1.3 hrs 0.94 hrs 102.14 nm 11.68 gal 8.98 gal/hr 0.11 gal/nm 3651 msl 103 kts
Tue, May 22, 2018     17:02 17:03 0.01 hrs 0.00 hrs 0.00 nm 0.02 gal 1.36 gal/hr 0.00 gal/nm 0 msl 0 kts
Tue, May 22, 2018     16:53 16:54 0.01 hrs 0.00 hrs 0.00 nm 22.71 gal 3270.24 gal/hr 0.00 gal/nm 0 msl 0 kts
Tue, May 22, 2018 KVNY KVNY 15:10 16:38 1.38 hrs 1.09 hrs 125.67 nm 9.65 gal 7.00 gal/hr 0.08 gal/nm 3587 msl 108 kts
Tue, May 22, 2018 KVNY KVNY 14:50 14:51 0.01 hrs 0.00 hrs 0.00 nm 25.50 gal 1732.08 gal/hr 0.00 gal/nm 0 msl 0 kts
Mon, May 21, 2018 KVNY KVNY 17:13 18:25 1.11 hrs 0.82 hrs 83.15 nm 11.57 gal 10.44 gal/hr 0.14 gal/nm 1857 msl 93 kts
Mon, May 21, 2018     16:57 16:58 0.01 hrs 0.00 hrs 0.00 nm 26.22 gal 1780.98 gal/hr 0.00 gal/nm 0 msl 0 kts
Sun, May 20, 2018 KVNY KVNY 15:13 17:05 1.76 hrs 1.33 hrs 164.41 nm 19.97 gal 11.32 gal/hr 0.12 gal/nm 5012 msl 117 kts
Sun, May 20, 2018 KVNY KVNY 15:02 15:03 0.01 hrs 0.00 hrs 0.00 nm 18.46 gal 1253.89 gal/hr 0.00 gal/nm 0 msl 0 kts
Sun, May 20, 2018 KVNY KVNY 12:08 13:28 1.26 hrs 0.75 hrs 92.30 nm 10.20 gal 8.12 gal/hr 0.11 gal/nm 5055 msl 117 kts
Sun, May 20, 2018     12:06 12:06 0.01 hrs 0.00 hrs 0.00 nm 0.07 gal 9.69 gal/hr 0.00 gal/nm 0 msl 0 kts
Sun, May 20, 2018 KVNY KVNY 11:55 11:56 0.02 hrs 0.00 hrs 0.00 nm 24.03 gal 1272.18 gal/hr 0.00 gal/nm 0 msl 0 kts
Sun, May 20, 2018 KVNY KVNY 10:04 11:15 1.12 hrs 0.69 hrs 75.04 nm 8.64 gal 7.73 gal/hr 0.12 gal/nm 2644 msl 102 kts
Sun, May 20, 2018     09:55 09:56 0 hrs 0.00 hrs 0.00 nm 8.81 gal 2883.27 gal/hr 0.00 gal/nm 0 msl 0 kts
Sun, May 20, 2018 KVNY KVNY 09:14 09:17 0.05 hrs 0.00 hrs 0.00 nm 0.05 gal 0.95 gal/hr 0.00 gal/nm 0 msl 0 kts
Sat, May 19, 2018 KVNY KVNY 14:16 15:35 1.25 hrs 0.80 hrs 84.13 nm 10.83 gal 8.69 gal/hr 0.13 gal/nm 4745 msl 97 kts
Sat, May 19, 2018     14:07 14:07 0.01 hrs 0.00 hrs 0.00 nm 18.30 gal 2533.85 gal/hr 0.00 gal/nm 0 msl 0 kts
Fri, May 18, 2018 KVNY KVNY 11:26 12:49 1.31 hrs 0.59 hrs 63.50 nm 10.42 gal 7.95 gal/hr 0.16 gal/nm 1879 msl 99 kts
Fri, May 18, 2018     11:12 11:12 0 hrs 0.00 hrs 0.00 nm 12.40 gal 3720.00 gal/hr 0.00 gal/nm 0 msl 0 kts
Thu, May 17, 2018 KVNY KVNY 15:40 15:42 0.03 hrs 0.00 hrs 0.00 nm 0.09 gal 3.08 gal/hr 0.00 gal/nm 0 msl 0 kts
Thu, May 17, 2018 KWJF KVNY 12:54 13:52 0.88 hrs 0.64 hrs 88.31 nm 11.42 gal 13.00 gal/hr 0.13 gal/nm 5525 msl 126 kts
Thu, May 17, 2018 KVNY KWJF 11:07 12:11 1 hrs 0.76 hrs 110.87 nm 13.20 gal 13.16 gal/hr 0.12 gal/nm 5516 msl 136 kts
Thu, May 17, 2018 KVNY KVNY 10:54 10:55 0.02 hrs 0.00 hrs 0.00 nm 26.39 gal 1397.12 gal/hr 0.00 gal/nm 0 msl 0 kts
Wed, May 16, 2018 KCNO KVNY 16:11 17:01 0.79 hrs 0.42 hrs 51.38 nm 5.75 gal 7.27 gal/hr 0.11 gal/nm 4510 msl 116 kts
Wed, May 16, 2018 KCNO KCNO 15:58 15:58 0 hrs 0.00 hrs 0.00 nm 14.85 gal 4455.00 gal/hr 0.00 gal/nm 0 msl 0 kts
Wed, May 16, 2018 KVNY KCNO 13:36 14:27 0.81 hrs 0.44 hrs 54.79 nm 6.34 gal 7.86 gal/hr 0.12 gal/nm 5510 msl 119 kts
Wed, May 16, 2018 KVNY KVNY 13:02 13:04 0.02 hrs 0.00 hrs 0.00 nm 15.04 gal 820.36 gal/hr 0.00 gal/nm 0 msl 0 kts
Wed, May 16, 2018     10:35 10:35 0 hrs 0.00 hrs 0.00 nm 0.01 gal 3.00 gal/hr 0.00 gal/nm 0 msl 0 kts
Wed, May 16, 2018 KVNY KVNY 09:38 10:34 0.88 hrs 0.53 hrs 51.97 nm 7.11 gal 8.09 gal/hr 0.14 gal/nm 1913 msl 90 kts
Wed, May 16, 2018     09:31 09:31 0.01 hrs 0.00 hrs 0.00 nm 0.02 gal 2.77 gal/hr 0.00 gal/nm 0 msl 0 kts
Wed, May 16, 2018     09:09 09:10 0.01 hrs 0.00 hrs 0.00 nm 0.33 gal 45.69 gal/hr 0.00 gal/nm 0 msl 0 kts
Tue, May 15, 2018 KVNY KVNY 15:23 16:45 1.29 hrs 1.05 hrs 112.15 nm 12.65 gal 9.80 gal/hr 0.11 gal/nm 5054 msl 99 kts
Tue, May 15, 2018 KVNY KVNY 14:59 15:01 0.03 hrs 0.00 hrs 0.00 nm 0.29 gal 8.63 gal/hr 0.00 gal/nm 0 msl 0 kts
Tue, May 15, 2018 KVNY KVNY 14:53 14:54 0.03 hrs 0.00 hrs 0.00 nm 23.88 gal 914.55 gal/hr 0.00 gal/nm 0 msl 0 kts
Tue, May 15, 2018 KVNY KVNY 10:56 12:33 1.53 hrs 1.29 hrs 153.32 nm 15.21 gal 9.94 gal/hr 0.10 gal/nm 5582 msl 112 kts
Tue, May 15, 2018 KVNY KVNY 10:40 10:41 0.02 hrs 0.00 hrs 0.00 nm 23.66 gal 1064.70 gal/hr 0.00 gal/nm 0 msl 0 kts
Mon, May 14, 2018 KVNY KVNY 17:09 18:36 1.36 hrs 1.05 hrs 125.66 nm 14.11 gal 10.41 gal/hr 0.11 gal/nm 5802 msl 112 kts
Mon, May 14, 2018 KVNY KVNY 16:54 16:56 0.02 hrs 0.00 hrs 0.00 nm 25.10 gal 1369.09 gal/hr 0.00 gal/nm 0 msl 0 kts
Mon, May 14, 2018     13:39 13:40 0.02 hrs 0.00 hrs 0.00 nm 0.29 gal 15.35 gal/hr 0.00 gal/nm 0 msl 0 kts
Mon, May 14, 2018 KVNY KVNY 11:45 13:37 1.76 hrs 1.44 hrs 194.02 nm 17.66 gal 10.04 gal/hr 0.09 gal/nm 5529 msl 126 kts
Mon, May 14, 2018     11:10 11:10 0 hrs 0.00 hrs 0.00 nm 0.02 gal 6.00 gal/hr 0.00 gal/nm 0 msl 0 kts
Sat, May 12, 2018 KVNY KVNY 14:23 15:30 1.04 hrs 0.80 hrs 79.56 nm 10.72 gal 10.30 gal/hr 0.13 gal/nm 1923 msl 92 kts
Sat, May 12, 2018 KVNY KVNY 14:11 14:13 0.03 hrs 0.00 hrs 0.00 nm 0.03 gal 1.03 gal/hr 0.00 gal/nm 0 msl 0 kts
Thu, May 10, 2018 KVNY KVNY 17:08 18:15 1.05 hrs 0.78 hrs 82.18 nm 9.89 gal 9.38 gal/hr 0.12 gal/nm 5151 msl 99 kts
Thu, May 10, 2018 KVNY KVNY 16:54 16:55 0.01 hrs 0.00 hrs 0.00 nm 18.71 gal 1727.08 gal/hr 0.00 gal/nm 0 msl 0 kts
Thu, May 10, 2018 KSZP KVNY 15:30 15:58 0.44 hrs 0.28 hrs 33.70 nm 3.92 gal 8.97 gal/hr 0.12 gal/nm 3509 msl 115 kts
Thu, May 10, 2018 KSZP KSZP 15:20 15:21 0.02 hrs 0.00 hrs 0.00 nm 27.47 gal 1236.15 gal/hr 0.00 gal/nm 0 msl 0 kts
Thu, May 10, 2018 KVNY KSZP 11:37 12:22 0.72 hrs 0.34 hrs 42.15 nm 5.16 gal 7.21 gal/hr 0.12 gal/nm 4510 msl 117 kts
Thu, May 10, 2018 KVNY KVNY 11:11 11:12 0.02 hrs 0.00 hrs 0.00 nm 19.78 gal 1062.81 gal/hr 0.00 gal/nm 0 msl 0 kts
Tue, May 8, 2018 KVNY KVNY 17:06 18:21 1.2 hrs 0.80 hrs 78.41 nm 11.66 gal 9.74 gal/hr 0.15 gal/nm 1871 msl 93 kts
Tue, May 8, 2018     17:00 17:00 0.01 hrs 0.00 hrs 0.00 nm 25.39 gal 3515.54 gal/hr 0.00 gal/nm 0 msl 0 kts
Tue, May 8, 2018 KVNY KVNY 07:26 07:56 0.47 hrs 0.19 hrs 19.52 nm 3.26 gal 6.95 gal/hr 0.17 gal/nm 1851 msl 99 kts
Tue, May 8, 2018 KVNY KVNY 07:05 07:07 0.03 hrs 0.00 hrs 0.00 nm 19.51 gal 656.41 gal/hr 0.00 gal/nm 0 msl 0 kts
Sun, May 6, 2018 KVNY KVNY 12:37 14:13 1.51 hrs 1.17 hrs 133.87 nm 13.12 gal 8.70 gal/hr 0.10 gal/nm 5015 msl 107 kts
Sun, May 6, 2018     12:22 12:22 0.01 hrs 0.00 hrs 0.00 nm 25.71 gal 3559.85 gal/hr 0.00 gal/nm 0 msl 0 kts
Sun, May 6, 2018 KVNY KVNY 09:47 11:16 1.38 hrs 1.00 hrs 107.54 nm 13.09 gal 9.47 gal/hr 0.12 gal/nm 4623 msl 100 kts
Sun, May 6, 2018 KVNY KVNY 09:29 09:29 0.02 hrs 0.00 hrs 0.00 nm 17.35 gal 1156.67 gal/hr 0.00 gal/nm 0 msl 0 kts
Sat, May 5, 2018 KVNY KVNY 13:13 13:53 0.63 hrs 0.00 hrs 0.00 nm 0.28 gal 0.44 gal/hr 0.00 gal/nm 0 msl 0 kts
Fri, May 4, 2018 KMHV KVNY 11:45 12:43 0.89 hrs 0.64 hrs 80.23 nm 10.31 gal 11.59 gal/hr 0.13 gal/nm 6793 msl 112 kts
Fri, May 4, 2018 KVNY KMHV 08:55 10:22 1.38 hrs 0.61 hrs 75.21 nm 12.74 gal 9.21 gal/hr 0.17 gal/nm 5806 msl 116 kts
Fri, May 4, 2018 KVNY KVNY 08:27 08:28 0.02 hrs 0.00 hrs 0.00 nm 23.84 gal 1280.96 gal/hr 0.00 gal/nm 0 msl 0 kts
Thu, May 3, 2018 KVNY KVNY 09:27 10:38 1.05 hrs 0.82 hrs 101.76 nm 11.56 gal 10.99 gal/hr 0.11 gal/nm 4703 msl 107 kts
Thu, May 3, 2018 KVNY KVNY 09:22 09:25 0.04 hrs 0.00 hrs 0.00 nm 20.19 gal 487.81 gal/hr 0.00 gal/nm 0 msl 0 kts
Thu, May 3, 2018 KVNY KVNY 09:11 09:12 0.02 hrs 0.00 hrs 0.00 nm 15.28 gal 821.01 gal/hr 0.00 gal/nm 0 msl 0 kts
Wed, May 2, 2018 KVNY KVNY 17:16 18:21 1 hrs 0.74 hrs 76.11 nm 10.41 gal 10.38 gal/hr 0.14 gal/nm 1932 msl 93 kts
Wed, May 2, 2018 KVNY KVNY 17:00 17:01 0.02 hrs 0.00 hrs 0.00 nm 0.00 gal 0.02 gal/hr 0.00 gal/nm 0 msl 0 kts
Wed, May 2, 2018 KVNY KVNY 14:34 16:20 1.67 hrs 1.25 hrs 148.56 nm 14.94 gal 8.93 gal/hr 0.10 gal/nm 5019 msl 113 kts
Wed, May 2, 2018     14:19 14:20 0.01 hrs 0.00 hrs 0.00 nm 26.60 gal 1806.79 gal/hr 0.00 gal/nm 0 msl 0 kts
Wed, May 2, 2018     14:17 14:17 0.01 hrs 0.00 hrs 0.00 nm 0.14 gal 19.38 gal/hr 0.00 gal/nm 0 msl 0 kts
Wed, May 2, 2018 KCMA KVNY 11:03 11:51 0.75 hrs 0.36 hrs 46.64 nm 6.28 gal 8.38 gal/hr 0.13 gal/nm 2574 msl 122 kts
Wed, May 2, 2018 KVNY KCMA 08:47 10:10 1.3 hrs 0.53 hrs 63.43 nm 9.97 gal 7.70 gal/hr 0.16 gal/nm 2585 msl 109 kts
Wed, May 2, 2018 KVNY KVNY 08:31 08:33 0.02 hrs 0.00 hrs 0.00 nm 0.16 gal 7.29 gal/hr 0.00 gal/nm 0 msl 0 kts
Tue, May 1, 2018 KVNY KVNY 17:22 18:40 1.22 hrs 0.91 hrs 90.50 nm 12.63 gal 10.37 gal/hr 0.14 gal/nm 1926 msl 92 kts
Tue, May 1, 2018 KVNY KVNY 17:14 17:20 0.1 hrs 0.00 hrs 0.00 nm 0.00 gal 0.00 gal/hr 0.00 gal/nm 0 msl 0 kts
Tue, May 1, 2018     17:07 17:07 0 hrs 0.00 hrs 0.00 nm 13.69 gal 4107.00 gal/hr 0.00 gal/nm 0 msl 0 kts
Mon, Apr 30, 2018 KVNY KVNY 09:40 11:05 1.35 hrs 0.65 hrs 68.66 nm 11.49 gal 8.52 gal/hr 0.17 gal/nm 2554 msl 97 kts
Mon, Apr 30, 2018     09:38 09:39 0.01 hrs 0.00 hrs 0.00 nm 0.00 gal 0.00 gal/hr 0.00 gal/nm 0 msl 0 kts
Mon, Apr 30, 2018 KVNY KVNY 09:24 09:25 0.02 hrs 0.00 hrs 0.00 nm 17.50 gal 787.50 gal/hr 0.00 gal/nm 0 msl 0 kts
Sun, Apr 29, 2018     14:52 14:52 0 hrs 0.00 hrs 0.00 nm 0.00 gal 0.00 gal/hr 0.00 gal/nm 0 msl 0 kts
Sun, Apr 29, 2018     14:50 14:51 0.02 hrs 0.00 hrs 0.00 nm 0.02 gal 1.07 gal/hr 0.00 gal/nm 0 msl 0 kts
Sun, Apr 29, 2018     11:20 11:20 0.01 hrs 0.00 hrs 0.00 nm 0.06 gal 8.64 gal/hr 0.00 gal/nm 0 msl 0 kts
Sun, Apr 29, 2018 KVNY KVNY 10:12 11:19 1.06 hrs 0.72 hrs 82.93 nm 8.99 gal 8.50 gal/hr 0.11 gal/nm 6719 msl 109 kts
Sun, Apr 29, 2018     10:00 10:00 0 hrs 0.00 hrs 0.00 nm 19.60 gal 5880.00 gal/hr 0.00 gal/nm 0 msl 0 kts
Sat, Apr 28, 2018 KVNY KVNY 14:06 15:40 1.48 hrs 1.14 hrs 139.86 nm 14.17 gal 9.54 gal/hr 0.10 gal/nm 4192 msl 116 kts
Sat, Apr 28, 2018     13:57 13:57 0.01 hrs 0.00 hrs 0.00 nm 24.32 gal 3367.38 gal/hr 0.00 gal/nm 0 msl 0 kts
Fri, Apr 27, 2018 KSMO KVNY 18:57 19:50 0.85 hrs 0.45 hrs 59.16 nm 6.50 gal 7.62 gal/hr 0.11 gal/nm 5013 msl 125 kts
Fri, Apr 27, 2018     18:46 18:47 0.01 hrs 0.00 hrs 0.00 nm 0.07 gal 6.30 gal/hr 0.00 gal/nm 0 msl 0 kts
Fri, Apr 27, 2018 KSMO KSMO 13:12 13:18 0.09 hrs 0.00 hrs 0.00 nm 0.20 gal 2.11 gal/hr 0.00 gal/nm 0 msl 0 kts
Fri, Apr 27, 2018     11:16 11:16 0 hrs 0.00 hrs 0.00 nm 0.13 gal 39.00 gal/hr 0.00 gal/nm 0 msl 0 kts
Thu, Apr 26, 2018 KSMO KSMO 16:08 16:14 0.1 hrs 0.00 hrs 0.00 nm 0.22 gal 2.11 gal/hr 0.00 gal/nm 0 msl 0 kts
Wed, Apr 25, 2018 KVNY KSMO 18:06 18:30 0.38 hrs 0.14 hrs 14.52 nm 2.67 gal 7.05 gal/hr 0.18 gal/nm 2767 msl 98 kts
Wed, Apr 25, 2018     17:59 18:00 0.01 hrs 0.00 hrs 0.00 nm 0.02 gal 1.85 gal/hr 0.00 gal/nm 0 msl 0 kts
Wed, Apr 25, 2018 KVNY KVNY 14:18 15:37 1.25 hrs 0.85 hrs 95.29 nm 12.28 gal 9.85 gal/hr 0.13 gal/nm 5161 msl 105 kts
Wed, Apr 25, 2018 KVNY KVNY 14:04 14:10 0.1 hrs 0.00 hrs 0.00 nm 25.57 gal 260.77 gal/hr 0.00 gal/nm 0 msl 0 kts
Mon, Apr 23, 2018 KVNY KVNY 14:17 16:44 2.29 hrs 1.15 hrs 151.99 nm 21.26 gal 9.27 gal/hr 0.14 gal/nm 3616 msl 121 kts
Mon, Apr 23, 2018     14:03 14:03 0.01 hrs 0.00 hrs 0.00 nm 0.03 gal 4.15 gal/hr 0.00 gal/nm 0 msl 0 kts
Mon, Apr 23, 2018 KVNY KVNY 13:53 13:55 0.03 hrs 0.00 hrs 0.00 nm 26.46 gal 890.24 gal/hr 0.00 gal/nm 0 msl 0 kts
Sun, Apr 22, 2018 KVNY KVNY 15:45 17:12 1.42 hrs 0.78 hrs 93.35 nm 13.13 gal 9.26 gal/hr 0.14 gal/nm 4026 msl 115 kts
Sun, Apr 22, 2018     15:21 15:22 0.01 hrs 0.00 hrs 0.00 nm 0.00 gal 0.00 gal/hr 0.00 gal/nm 0 msl 0 kts
Sun, Apr 22, 2018 KSBP KVNY 13:29 15:05 1.5 hrs 1.19 hrs 164.17 nm 18.34 gal 12.22 gal/hr 0.11 gal/nm 5662 msl 130 kts
Sun, Apr 22, 2018 KVNY KSBP 10:27 11:48 1.26 hrs 0.98 hrs 134.27 nm 15.76 gal 12.52 gal/hr 0.12 gal/nm 6598 msl 127 kts
Sun, Apr 22, 2018     10:12 10:12 0.01 hrs 0.00 hrs 0.00 nm 0.15 gal 20.77 gal/hr 0.00 gal/nm 0 msl 0 kts
Sat, Apr 21, 2018 KVNY KVNY 17:49 19:08 1.24 hrs 0.85 hrs 100.90 nm 13.07 gal 10.56 gal/hr 0.13 gal/nm 4469 msl 112 kts
Sat, Apr 21, 2018     17:23 17:24 0.01 hrs 0.00 hrs 0.00 nm 0.02 gal 1.17 gal/hr 0.00 gal/nm 0 msl 0 kts
Sat, Apr 21, 2018 KVNY KVNY 14:09 15:44 1.49 hrs 1.14 hrs 121.35 nm 14.65 gal 9.85 gal/hr 0.12 gal/nm 5262 msl 100 kts
Sat, Apr 21, 2018     14:02 14:02 0.01 hrs 0.00 hrs 0.00 nm 24.06 gal 3331.38 gal/hr 0.00 gal/nm 0 msl 0 kts
Sat, Apr 21, 2018 KVNY KVNY 09:51 10:33 0.66 hrs 0.30 hrs 38.22 nm 5.06 gal 7.64 gal/hr 0.13 gal/nm 4609 msl 121 kts
Sat, Apr 21, 2018 KVNY KVNY 09:14 09:15 0.02 hrs 0.00 hrs 0.00 nm 24.46 gal 1314.27 gal/hr 0.00 gal/nm 0 msl 0 kts
Sat, Apr 21, 2018 KVNY KVNY 07:08 08:15 1.06 hrs 0.78 hrs 92.56 nm 12.35 gal 11.64 gal/hr 0.13 gal/nm 4475 msl 113 kts
Sat, Apr 21, 2018     06:50 06:51 0.01 hrs 0.00 hrs 0.00 nm 0.07 gal 9.69 gal/hr 0.00 gal/nm 0 msl 0 kts
Fri, Apr 20, 2018 KVNY KVNY 08:30 10:51 2.19 hrs 1.40 hrs 191.74 nm 21.48 gal 9.79 gal/hr 0.11 gal/nm 4040 msl 128 kts
Fri, Apr 20, 2018 KVNY KVNY 08:27 08:29 0.03 hrs 0.00 hrs 0.00 nm 0.00 gal 0.00 gal/hr 0.00 gal/nm 0 msl 0 kts
Fri, Apr 20, 2018 KVNY KVNY 08:04 08:06 0.03 hrs 0.00 hrs 0.00 nm 18.93 gal 732.77 gal/hr 0.00 gal/nm 0 msl 0 kts
Thu, Apr 19, 2018 KVNY KVNY 13:05 13:14 0.15 hrs 0.00 hrs 0.00 nm 0.16 gal 1.08 gal/hr 0.00 gal/nm 0 msl 0 kts
Wed, Apr 18, 2018     17:44 17:44 0 hrs 0.00 hrs 0.00 nm 0.38 gal 114.00 gal/hr 0.00 gal/nm 0 msl 0 kts
Wed, Apr 18, 2018 KVNY KVNY 14:36 15:36 0.95 hrs 0.60 hrs 58.01 nm 9.09 gal 9.59 gal/hr 0.16 gal/nm 2331 msl 93 kts
Wed, Apr 18, 2018     14:03 14:03 0 hrs 0.00 hrs 0.00 nm 0.05 gal 15.00 gal/hr 0.00 gal/nm 0 msl 0 kts
Wed, Apr 18, 2018 KCMA KVNY 10:42 11:20 0.6 hrs 0.29 hrs 37.31 nm 5.74 gal 9.60 gal/hr 0.15 gal/nm 3339 msl 123 kts
Wed, Apr 18, 2018 KVNY KCMA 09:28 10:21 0.84 hrs 0.26 hrs 33.28 nm 5.48 gal 6.54 gal/hr 0.16 gal/nm 3125 msl 119 kts
Wed, Apr 18, 2018 KVNY KVNY 09:04 09:06 0.02 hrs 0.00 hrs 0.00 nm 19.03 gal 867.19 gal/hr 0.00 gal/nm 0 msl 0 kts
Tue, Apr 17, 2018 KVNY KVNY 16:26 17:54 1.36 hrs 1.02 hrs 111.51 nm 13.44 gal 9.89 gal/hr 0.12 gal/nm 4719 msl 101 kts
Tue, Apr 17, 2018 KVNY KVNY 16:10 16:11 0.02 hrs 0.00 hrs 0.00 nm 27.44 gal 1474.39 gal/hr 0.00 gal/nm 0 msl 0 kts
Tue, Apr 17, 2018 KVNY KVNY 07:24 07:50 0.41 hrs 0.15 hrs 16.51 nm 2.73 gal 6.61 gal/hr 0.17 gal/nm 3610 msl 106 kts
Tue, Apr 17, 2018 KVNY KVNY 07:07 07:07 0 hrs 0.00 hrs 0.00 nm 6.33 gal 1899.00 gal/hr 0.00 gal/nm 0 msl 0 kts
          213.20 hrs 134.11 hrs 15929.01 nm 3883.82 gal